createdAt,value
2022-08-24T00:01:54.937Z,17.27
2022-08-24T00:04:22.744Z,17.35
2022-08-24T00:06:49.942Z,14.90
2022-08-24T00:09:17.147Z,15.32
2022-08-24T00:11:44.655Z,13.25
2022-08-24T00:14:11.828Z,19.80
2022-08-24T00:16:39.718Z,22.65
2022-08-24T00:19:06.880Z,16.40
2022-08-24T00:21:34.263Z,10.85
2022-08-24T00:24:03.190Z,13.85
2022-08-24T00:26:30.351Z,13.05
2022-08-24T00:28:58.581Z,9.75
2022-08-24T00:31:25.999Z,9.85
2022-08-24T00:33:54.203Z,14.60
2022-08-24T00:36:22.172Z,9.00
2022-08-24T00:38:49.856Z,7.93
2022-08-24T00:41:17.976Z,12.05
2022-08-24T00:43:54.872Z,9.70
2022-08-24T00:46:55.033Z,9.07
2022-08-24T00:49:50.495Z,13.70
2022-08-24T00:52:43.193Z,8.40
2022-08-24T00:55:20.949Z,8.50
2022-08-24T00:57:51.466Z,7.43
2022-08-24T01:00:26.369Z,14.70
2022-08-24T01:03:00.933Z,16.35
2022-08-24T01:05:28.080Z,14.75
2022-08-24T01:07:55.298Z,13.10
2022-08-24T01:10:27.137Z,9.85
2022-08-24T01:13:01.461Z,15.13
2022-08-24T01:15:37.380Z,9.20
2022-08-24T01:18:26.852Z,8.30
2022-08-24T01:21:27.828Z,10.18
2022-08-24T01:24:02.104Z,13.40
2022-08-24T01:26:51.178Z,7.55
2022-08-24T01:29:30.997Z,13.10
2022-08-24T01:31:58.458Z,16.08
2022-08-24T01:34:26.139Z,13.02
2022-08-24T01:36:55.683Z,9.38
2022-08-24T01:39:32.370Z,8.85
2022-08-24T01:42:00.170Z,8.40
2022-08-24T01:44:33.404Z,10.05
2022-08-24T01:47:06.682Z,11.07
2022-08-24T01:49:40.962Z,12.38
2022-08-24T01:52:12.794Z,15.18
2022-08-24T01:54:40.224Z,13.55
2022-08-24T01:57:16.337Z,17.38
2022-08-24T01:59:45.253Z,16.35
2022-08-24T02:02:19.173Z,22.38
2022-08-24T02:04:46.385Z,15.40
2022-08-24T02:07:13.767Z,13.48
2022-08-24T02:09:41.284Z,12.90
2022-08-24T02:12:08.961Z,13.60
2022-08-24T02:14:36.497Z,12.30
2022-08-24T02:17:08.608Z,10.73
2022-08-24T02:19:36.904Z,11.98
2022-08-24T02:22:05.431Z,14.85
2022-08-24T02:24:33.563Z,15.25
2022-08-24T02:27:01.836Z,16.13
2022-08-24T02:29:28.969Z,12.53
2022-08-24T02:31:57.214Z,14.05
2022-08-24T02:34:25.096Z,34.53
2022-08-24T02:36:53.047Z,27.83
2022-08-24T02:41:51.499Z,15.75
2022-08-24T02:44:19.544Z,12.30
2022-08-24T02:46:46.864Z,19.70
2022-08-24T02:49:14.149Z,18.63
2022-08-24T02:51:45.496Z,22.25
2022-08-24T02:54:18.859Z,22.75
2022-08-24T02:56:48.186Z,21.60
2022-08-24T02:59:17.119Z,13.37
2022-08-24T03:01:46.373Z,26.02
2022-08-24T03:04:18.868Z,19.25
2022-08-24T03:06:46.605Z,15.50
2022-08-24T03:09:14.039Z,17.83
2022-08-24T03:11:45.147Z,21.08
2022-08-24T03:14:13.882Z,16.98
2022-08-24T03:16:41.552Z,23.60
2022-08-24T03:19:08.845Z,12.10
2022-08-24T03:21:38.026Z,17.58
2022-08-24T03:24:05.594Z,8.48
2022-08-24T03:26:32.820Z,11.77
2022-08-24T03:29:00.505Z,13.27
2022-08-24T03:31:30.258Z,15.73
2022-08-24T03:36:26.460Z,21.83
2022-08-24T03:38:54.612Z,25.33
2022-08-24T03:41:22.917Z,16.55
2022-08-24T03:43:50.568Z,13.98
2022-08-24T03:46:28.142Z,11.68
2022-08-24T03:48:58.127Z,22.33
2022-08-24T03:51:28.405Z,14.93
2022-08-24T03:53:58.993Z,15.30
2022-08-24T03:56:28.860Z,9.68
2022-08-24T03:58:57.241Z,13.97
2022-08-24T04:01:27.420Z,24.10
2022-08-24T04:03:55.150Z,19.67
2022-08-24T04:06:26.711Z,24.33
2022-08-24T04:08:55.769Z,17.50
2022-08-24T04:13:56.057Z,19.02
2022-08-24T04:16:25.477Z,19.63
2022-08-24T04:19:05.137Z,16.65
2022-08-24T04:21:35.893Z,17.15
2022-08-24T04:24:08.176Z,10.65
2022-08-24T04:26:44.986Z,9.35
2022-08-24T04:29:18.731Z,16.98
2022-08-24T04:31:51.184Z,30.20
2022-08-24T04:34:18.849Z,20.27
2022-08-24T04:36:46.901Z,18.38
2022-08-24T04:39:15.165Z,26.33
2022-08-24T04:41:42.371Z,18.55
2022-08-24T04:44:11.682Z,17.15
2022-08-24T04:46:39.189Z,23.85
2022-08-24T04:49:08.585Z,20.27
2022-08-24T04:51:37.063Z,32.95
2022-08-24T04:54:07.644Z,21.25
2022-08-24T04:56:35.676Z,21.92
2022-08-24T04:59:04.903Z,24.48
2022-08-24T05:01:33.338Z,21.83
2022-08-24T05:04:03.867Z,30.65
2022-08-24T05:06:33.268Z,17.75
2022-08-24T05:09:02.728Z,26.85
2022-08-24T05:11:30.535Z,21.55
2022-08-24T05:13:58.796Z,27.10
2022-08-24T05:16:27.299Z,31.38
2022-08-24T05:18:56.186Z,26.58
2022-08-24T05:21:24.478Z,22.65
2022-08-24T05:23:54.522Z,22.50
2022-08-24T05:26:26.590Z,15.60
2022-08-24T05:28:58.400Z,21.80
2022-08-24T05:31:31.603Z,18.23
2022-08-24T05:34:04.565Z,22.17
2022-08-24T05:36:37.393Z,28.92
2022-08-24T05:39:13.816Z,21.42
2022-08-24T05:41:47.509Z,18.48
2022-08-24T05:44:25.940Z,13.35
2022-08-24T05:46:57.582Z,16.23
2022-08-24T05:49:25.890Z,21.42
2022-08-24T05:51:54.457Z,16.33
2022-08-24T05:54:26.250Z,17.23
2022-08-24T05:57:03.959Z,18.27
2022-08-24T05:59:36.077Z,21.67
2022-08-24T06:02:09.463Z,15.95
2022-08-24T06:04:37.649Z,20.88
2022-08-24T06:09:39.214Z,13.45
2022-08-24T06:12:08.199Z,19.55
2022-08-24T06:14:36.492Z,17.58
2022-08-24T06:17:07.938Z,24.55
2022-08-24T06:19:36.006Z,14.30
2022-08-24T06:22:04.580Z,15.32
2022-08-24T06:24:55.215Z,14.05
2022-08-24T06:27:23.338Z,18.75
2022-08-24T06:30:09.357Z,15.95
2022-08-24T06:32:45.256Z,14.63
2022-08-24T06:35:29.396Z,12.82
2022-08-24T06:37:57.844Z,10.68
2022-08-24T06:40:25.715Z,18.20
2022-08-24T06:42:53.405Z,18.40
2022-08-24T06:45:29.181Z,12.75
2022-08-24T06:47:56.652Z,13.35
2022-08-24T06:50:24.858Z,11.68
2022-08-24T06:52:52.056Z,14.13
2022-08-24T06:55:19.341Z,13.82
2022-08-24T06:57:51.670Z,11.40
2022-08-24T07:00:21.296Z,16.27
2022-08-24T07:05:16.853Z,13.77
2022-08-24T07:08:04.913Z,16.73
2022-08-24T07:10:33.791Z,14.88
2022-08-24T07:13:00.986Z,17.83
2022-08-24T07:15:28.130Z,12.80
2022-08-24T07:18:09.606Z,14.02
2022-08-24T07:20:39.216Z,18.52
2022-08-24T07:23:14.022Z,9.70
2022-08-24T07:25:44.895Z,16.02
2022-08-24T07:28:16.232Z,16.33
2022-08-24T07:30:44.477Z,15.98
2022-08-24T07:33:13.847Z,16.63
2022-08-24T07:35:41.660Z,19.07
2022-08-24T07:38:11.379Z,17.75
2022-08-24T07:41:01.717Z,25.08
2022-08-24T07:43:26.384Z,23.10
2022-08-24T07:45:54.198Z,25.60
2022-08-24T07:48:21.865Z,15.43
2022-08-24T07:50:50.524Z,27.33
2022-08-24T07:53:20.847Z,27.70
2022-08-24T07:55:56.059Z,23.05
2022-08-24T07:58:24.782Z,16.88
2022-08-24T08:00:52.204Z,20.70
2022-08-24T08:03:22.705Z,17.98
2022-08-24T08:05:55.782Z,17.05
2022-08-24T08:08:27.273Z,18.25
2022-08-24T08:10:56.249Z,19.35
2022-08-24T08:13:23.627Z,18.75
2022-08-24T08:15:51.566Z,19.87
2022-08-24T08:18:19.257Z,21.75
2022-08-24T08:20:48.002Z,12.70
2022-08-24T08:23:33.859Z,19.67
2022-08-24T08:26:19.896Z,13.70
2022-08-24T08:29:02.705Z,14.73
2022-08-24T08:31:34.247Z,13.27
2022-08-24T08:34:03.993Z,17.63
2022-08-24T08:36:32.549Z,15.98
2022-08-24T08:39:01.051Z,10.27
2022-08-24T08:41:59.997Z,24.20
2022-08-24T08:44:38.897Z,13.20
2022-08-24T08:47:11.864Z,13.43
2022-08-24T08:50:04.781Z,37.30
2022-08-24T08:53:33.497Z,21.60
2022-08-24T08:56:43.549Z,16.67
2022-08-24T08:59:35.160Z,14.10
2022-08-24T09:02:32.433Z,19.25
2022-08-24T09:06:11.738Z,12.68
2022-08-24T09:09:03.547Z,11.88
2022-08-24T09:11:45.264Z,17.73
2022-08-24T09:14:51.887Z,23.70
2022-08-24T09:17:58.089Z,18.00
2022-08-24T09:20:47.023Z,19.70
2022-08-24T09:23:32.109Z,17.08
2022-08-24T09:26:38.960Z,14.48
2022-08-24T09:29:18.246Z,17.98
2022-08-24T09:31:45.930Z,19.90
2022-08-24T09:34:34.426Z,16.57
2022-08-24T09:37:31.086Z,18.52
2022-08-24T09:40:17.318Z,18.90
2022-08-24T09:43:01.346Z,24.13
2022-08-24T09:45:54.733Z,44.22
2022-08-24T09:48:25.572Z,33.53
2022-08-24T09:51:25.356Z,26.15
2022-08-24T09:54:10.279Z,22.95
2022-08-24T09:57:19.905Z,19.45
2022-08-24T10:00:23.484Z,18.35
2022-08-24T10:03:36.258Z,17.95
2022-08-24T10:06:19.876Z,23.85
2022-08-24T10:09:03.928Z,44.45
2022-08-24T10:11:58.712Z,17.83
2022-08-24T10:14:46.216Z,19.95
2022-08-24T10:17:20.308Z,26.55
2022-08-24T10:20:02.043Z,27.70
2022-08-24T10:23:41.548Z,24.67
2022-08-24T10:26:20.718Z,22.63
2022-08-24T10:29:20.768Z,18.10
2022-08-24T10:32:14.329Z,25.20
2022-08-24T10:35:11.565Z,26.65
2022-08-24T10:38:29.246Z,25.70
2022-08-24T10:41:27.099Z,25.55
2022-08-24T10:44:15.328Z,26.08
2022-08-24T10:49:36.640Z,26.73
2022-08-24T10:52:44.121Z,27.10
2022-08-24T10:55:15.233Z,26.35
2022-08-24T10:57:57.179Z,33.83
2022-08-24T11:00:29.158Z,29.95
2022-08-24T11:03:13.959Z,21.58
2022-08-24T11:05:53.291Z,20.65
2022-08-24T11:08:32.706Z,24.00
2022-08-24T11:11:13.670Z,26.35
2022-08-24T11:14:23.118Z,26.70
2022-08-24T11:16:54.584Z,22.95
2022-08-24T11:19:27.398Z,25.05
2022-08-24T11:22:05.046Z,40.42
2022-08-24T11:24:45.432Z,33.63
2022-08-24T11:27:33.672Z,21.02
2022-08-24T11:32:51.197Z,23.23
2022-08-24T11:35:23.304Z,31.95
2022-08-24T11:37:56.056Z,35.85
2022-08-24T11:40:30.499Z,28.52
2022-08-24T11:43:54.476Z,34.53
2022-08-24T11:46:24.373Z,14.25
2022-08-24T11:49:39.971Z,21.48
2022-08-24T11:52:33.721Z,18.75
2022-08-24T11:55:10.740Z,35.58
2022-08-24T11:57:48.316Z,31.35
2022-08-24T12:00:21.122Z,46.72
2022-08-24T12:03:25.018Z,26.02
2022-08-24T12:06:33.859Z,24.75
2022-08-24T12:09:41.461Z,19.27
2022-08-24T12:12:53.637Z,27.60
2022-08-24T12:15:51.338Z,37.92
2022-08-24T12:18:33.702Z,52.05
2022-08-24T12:21:00.877Z,26.73
2022-08-24T12:24:03.967Z,30.08
2022-08-24T12:27:06.230Z,21.15
2022-08-24T12:29:59.828Z,42.05
2022-08-24T12:32:48.018Z,24.77
2022-08-24T12:35:33.459Z,35.83
2022-08-24T12:38:16.513Z,30.70
2022-08-24T12:40:56.157Z,34.53
2022-08-24T12:43:53.118Z,35.30
2022-08-24T12:46:24.807Z,49.72
2022-08-24T12:49:24.200Z,31.95
2022-08-24T12:52:39.488Z,29.98
2022-08-24T12:55:52.269Z,25.83
2022-08-24T12:58:59.138Z,46.33
2022-08-24T13:01:35.754Z,35.95
2022-08-24T13:04:15.028Z,39.03
2022-08-24T13:07:06.903Z,50.38
2022-08-24T13:09:44.230Z,26.13
2022-08-24T13:12:30.203Z,28.75
2022-08-24T13:15:19.427Z,13.98
2022-08-24T13:17:47.699Z,29.95
2022-08-24T13:20:19.594Z,41.03
2022-08-24T13:23:12.417Z,25.33
2022-08-24T13:25:56.174Z,24.88
2022-08-24T13:28:23.227Z,32.72
2022-08-24T13:30:53.483Z,25.77
2022-08-24T13:33:40.173Z,25.98
2022-08-24T13:36:28.729Z,36.00
2022-08-24T13:39:22.011Z,42.50
2022-08-24T13:42:16.616Z,31.40
2022-08-24T13:45:30.823Z,37.03
2022-08-24T13:48:07.122Z,20.67
2022-08-24T13:51:24.915Z,46.75
2022-08-24T13:54:09.983Z,55.70
2022-08-24T13:57:06.603Z,44.70
2022-08-24T14:00:24.765Z,42.88
2022-08-24T14:03:04.211Z,37.75
2022-08-24T14:05:54.213Z,36.28
2022-08-24T14:09:01.337Z,25.25
2022-08-24T14:12:07.495Z,26.35
2022-08-24T14:15:10.971Z,28.55
2022-08-24T14:17:53.886Z,19.77
2022-08-24T14:21:10.449Z,24.92
2022-08-24T14:24:12.732Z,23.25
2022-08-24T14:26:40.000Z,21.02
2022-08-24T14:29:19.117Z,25.67
2022-08-24T14:31:58.809Z,31.80
2022-08-24T14:35:18.092Z,27.92
2022-08-24T14:41:19.894Z,24.75
2022-08-24T14:44:06.441Z,23.05
2022-08-24T14:47:01.409Z,45.20
2022-08-24T14:49:46.341Z,30.35
2022-08-24T14:52:29.293Z,31.85
2022-08-24T14:55:15.188Z,49.35
2022-08-24T14:58:18.326Z,25.70
2022-08-24T15:01:19.431Z,33.25
2022-08-24T15:04:37.857Z,45.67
2022-08-24T15:07:27.924Z,27.38
2022-08-24T15:09:57.497Z,46.28
2022-08-24T15:12:32.894Z,17.92
2022-08-24T15:15:09.578Z,32.47
2022-08-24T15:18:09.683Z,31.52
2022-08-24T15:21:17.452Z,26.65
2022-08-24T15:24:21.470Z,29.33
2022-08-24T15:27:00.135Z,23.00
2022-08-24T15:29:32.362Z,21.05
2022-08-24T15:32:07.225Z,24.80
2022-08-24T15:34:42.682Z,26.05
2022-08-24T15:37:10.263Z,34.25
2022-08-24T15:39:37.706Z,30.90
2022-08-24T15:42:12.873Z,27.38
2022-08-24T15:44:46.424Z,19.65
2022-08-24T15:47:39.052Z,23.65
2022-08-24T15:50:21.934Z,23.65
2022-08-24T15:52:54.404Z,36.85
2022-08-24T15:55:56.860Z,29.10
2022-08-24T15:58:38.325Z,34.38
2022-08-24T16:01:30.055Z,35.10
2022-08-24T16:04:03.694Z,31.80
2022-08-24T16:06:33.739Z,28.35
2022-08-24T16:09:09.173Z,27.52
2022-08-24T16:11:37.847Z,28.70
2022-08-24T16:14:51.016Z,31.15
2022-08-24T16:17:35.618Z,23.13
2022-08-24T16:20:32.187Z,24.65
2022-08-24T16:23:22.403Z,21.60
2022-08-24T16:25:51.285Z,21.60
2022-08-24T16:28:21.766Z,29.92
2022-08-24T16:31:07.594Z,22.42
2022-08-24T16:33:47.032Z,34.38
2022-08-24T16:36:18.068Z,32.90
2022-08-24T16:38:49.355Z,16.08
2022-08-24T16:41:21.220Z,29.20
2022-08-24T16:43:48.826Z,26.55
2022-08-24T16:46:22.000Z,32.17
2022-08-24T16:48:49.585Z,52.28
2022-08-24T16:51:16.707Z,23.60
2022-08-24T16:53:43.805Z,31.98
2022-08-24T16:56:13.618Z,32.67
2022-08-24T16:58:45.367Z,26.05
2022-08-24T17:01:13.424Z,32.25
2022-08-24T17:03:40.925Z,35.38
2022-08-24T17:06:11.726Z,37.42
2022-08-24T17:08:40.080Z,27.00
2022-08-24T17:11:07.933Z,36.20
2022-08-24T17:13:50.953Z,36.20
2022-08-24T17:16:20.610Z,27.13
2022-08-24T17:18:47.802Z,27.77
2022-08-24T17:21:15.108Z,38.40
2022-08-24T17:23:43.218Z,27.88
2022-08-24T17:26:21.746Z,28.10
2022-08-24T17:28:53.790Z,31.88
2022-08-24T17:31:24.033Z,36.22
2022-08-24T17:33:52.468Z,37.50
2022-08-24T17:38:55.594Z,35.78
2022-08-24T17:41:25.565Z,30.55
2022-08-24T17:43:53.989Z,30.23
2022-08-24T17:48:49.262Z,33.43
2022-08-24T17:51:16.407Z,29.70
2022-08-24T17:53:43.528Z,27.80
2022-08-24T17:56:14.977Z,41.78
2022-08-24T17:59:03.892Z,39.58
2022-08-24T18:01:31.614Z,29.52
2022-08-24T18:03:58.849Z,44.17
2022-08-24T18:06:27.249Z,26.23
2022-08-24T18:08:57.557Z,40.15
2022-08-24T18:11:26.174Z,41.70
2022-08-24T18:13:54.002Z,34.88
2022-08-24T18:16:27.690Z,26.02
2022-08-24T18:18:55.123Z,33.10
2022-08-24T18:21:22.356Z,43.58
2022-08-24T18:23:50.241Z,34.08
2022-08-24T18:26:27.680Z,51.03
2022-08-24T18:29:00.473Z,34.05
2022-08-24T18:31:29.987Z,33.83
2022-08-24T18:33:57.318Z,32.63
2022-08-24T18:36:24.458Z,29.60
2022-08-24T18:38:52.633Z,32.38
2022-08-24T18:41:20.553Z,45.28
2022-08-24T18:43:48.178Z,30.20
2022-08-24T18:46:15.488Z,40.10
2022-08-24T18:48:42.720Z,42.05
2022-08-24T18:51:14.286Z,36.47
2022-08-24T18:53:42.048Z,42.72
2022-08-24T18:56:12.449Z,44.05
2022-08-24T18:58:40.324Z,34.03
2022-08-24T19:01:07.994Z,32.20
2022-08-24T19:03:35.517Z,35.10
2022-08-24T19:06:02.811Z,31.30
2022-08-24T19:08:30.035Z,28.33
2022-08-24T19:10:57.268Z,29.95
2022-08-24T19:13:24.484Z,24.42
2022-08-24T19:15:51.844Z,23.38
2022-08-24T19:18:20.933Z,28.73
2022-08-24T19:20:53.936Z,41.10
2022-08-24T19:23:36.936Z,35.88
2022-08-24T19:26:04.615Z,29.23
2022-08-24T19:28:32.631Z,36.38
2022-08-24T19:31:02.319Z,26.75
2022-08-24T19:33:37.202Z,25.38
2022-08-24T19:36:05.603Z,28.35
2022-08-24T19:38:33.110Z,34.35
2022-08-24T19:41:02.008Z,48.20
2022-08-24T19:44:00.737Z,32.45
2022-08-24T19:46:27.977Z,28.33
2022-08-24T19:48:55.432Z,41.63
2022-08-24T19:51:22.673Z,39.35
2022-08-24T19:53:50.256Z,31.77
2022-08-24T19:56:17.473Z,23.13
2022-08-24T19:59:36.518Z,28.45
2022-08-24T20:02:03.915Z,25.92
2022-08-24T20:04:31.209Z,35.95
2022-08-24T20:06:58.401Z,48.38
2022-08-24T20:09:26.607Z,37.92
2022-08-24T20:11:53.759Z,44.38
2022-08-24T20:14:21.011Z,37.30
2022-08-24T20:16:48.239Z,35.42
2022-08-24T20:19:15.345Z,35.33
2022-08-24T20:21:42.500Z,26.17
2022-08-24T20:24:10.619Z,34.38
2022-08-24T20:26:43.637Z,49.70
2022-08-24T20:29:12.716Z,32.35
2022-08-24T20:31:40.773Z,44.03
2022-08-24T20:34:08.006Z,35.17
2022-08-24T20:36:39.410Z,33.28
2022-08-24T20:39:10.594Z,43.47
2022-08-24T20:41:39.635Z,38.58
2022-08-24T20:44:09.785Z,39.83
2022-08-24T20:46:39.224Z,35.15
2022-08-24T20:49:08.007Z,37.85
2022-08-24T20:51:41.991Z,31.02
2022-08-24T20:54:11.095Z,28.42
2022-08-24T20:56:38.502Z,27.63
2022-08-24T20:59:09.283Z,30.25
2022-08-24T21:01:37.344Z,46.58
2022-08-24T21:04:05.645Z,28.83
2022-08-24T21:06:33.709Z,34.03
2022-08-24T21:09:01.631Z,30.30
2022-08-24T21:11:29.124Z,32.63
2022-08-24T21:13:56.360Z,32.20
2022-08-24T21:16:23.843Z,30.80
2022-08-24T21:18:51.059Z,38.38
2022-08-24T21:21:18.213Z,13.75
2022-08-24T21:23:45.299Z,19.25
2022-08-24T21:26:14.737Z,30.90
2022-08-24T21:28:43.436Z,44.25
2022-08-24T21:33:56.624Z,22.27
2022-08-24T21:36:24.921Z,27.30
2022-08-24T21:38:54.457Z,31.92
2022-08-24T21:41:22.346Z,42.03
2022-08-24T21:43:50.746Z,30.98
2022-08-24T21:46:18.061Z,37.95
2022-08-24T21:48:46.207Z,39.35
2022-08-24T21:51:13.329Z,30.45
2022-08-24T21:53:40.508Z,46.72
2022-08-24T21:56:07.697Z,43.97
2022-08-24T21:58:34.920Z,39.42
2022-08-24T22:01:03.148Z,25.60
2022-08-24T22:03:37.374Z,33.67
2022-08-24T22:06:10.100Z,44.38
2022-08-24T22:08:41.721Z,38.45
2022-08-24T22:11:14.832Z,37.22
2022-08-24T22:13:42.402Z,36.55
2022-08-24T22:16:11.024Z,45.97
2022-08-24T22:21:10.314Z,33.83
2022-08-24T22:23:38.348Z,37.58
2022-08-24T22:26:06.477Z,39.92
2022-08-24T22:28:36.132Z,40.83
2022-08-24T22:31:12.927Z,43.90
2022-08-24T22:33:40.074Z,30.50
2022-08-24T22:36:10.867Z,25.15
2022-08-24T22:38:38.717Z,43.97
2022-08-24T22:41:07.460Z,28.00
2022-08-24T22:43:53.070Z,35.00
2022-08-24T22:46:21.671Z,30.65
2022-08-24T22:51:16.763Z,21.80
2022-08-24T22:53:44.514Z,23.38
2022-08-24T22:56:31.041Z,29.50
2022-08-24T22:59:00.370Z,41.75
2022-08-24T23:01:36.672Z,37.70
2022-08-24T23:04:09.285Z,27.67
2022-08-24T23:06:36.713Z,34.10
2022-08-24T23:09:05.956Z,29.33
2022-08-24T23:11:33.953Z,32.40
2022-08-24T23:14:02.735Z,28.75
2022-08-24T23:16:32.804Z,29.13
2022-08-24T23:19:18.675Z,22.75
2022-08-24T23:21:46.230Z,16.13
2022-08-24T23:24:13.731Z,24.90
2022-08-24T23:26:42.450Z,33.88
2022-08-24T23:29:12.286Z,25.63
2022-08-24T23:31:40.655Z,18.65
2022-08-24T23:34:07.906Z,28.50
2022-08-24T23:36:36.347Z,46.40
2022-08-24T23:39:06.199Z,31.80
2022-08-24T23:41:37.667Z,20.15
2022-08-24T23:44:09.842Z,29.77
2022-08-24T23:46:37.708Z,20.92
2022-08-24T23:49:05.696Z,38.53
2022-08-24T23:51:33.322Z,21.98
2022-08-24T23:54:00.868Z,32.33
2022-08-24T23:56:32.068Z,29.63
2022-08-24T23:59:10.535Z,26.33
